Terminal Aerodrome Forecast
Issued by NWS Greer, SC

Current Version | Previous Version | Text Only | Print | Product List | Glossary On
Versions: 1 2 3 4 5 6 7 8 9 10 11 12 13 14 15 16 17 18 19 20 21
000
FTUS42 KGSP 242320
TAFGSP
TAF
KGSP 242320Z 2500/2524 20005KT P6SM SKC
     FM250300 23004KT P6SM SCT150
     FM250900 34006KT P6SM BKN050
     FM251900 04007KT P6SM BKN090=

USA.gov is the U.S. government's official web portal to all federal, state and local government web resources and services.